createdAt,value
2016-06-23T00:00:34.411Z,21.36
2016-06-23T00:01:34.393Z,21.35
2016-06-23T00:02:34.375Z,21.4
2016-06-23T00:03:33.711Z,21.46
2016-06-23T00:04:34.345Z,21.4
2016-06-23T00:05:33.682Z,21.35
2016-06-23T00:06:33.679Z,21.18
2016-06-23T00:07:34.295Z,21.21
2016-06-23T00:08:34.290Z,21.35
2016-06-23T00:09:33.634Z,21.45
2016-06-23T00:10:33.619Z,21.69
2016-06-23T00:11:33.617Z,21.57
2016-06-23T00:12:34.226Z,21.45
2016-06-23T00:13:34.208Z,21.43
2016-06-23T00:14:33.566Z,21.29
2016-06-23T00:15:34.190Z,21.21
2016-06-23T00:16:33.537Z,21.14
2016-06-23T00:17:33.522Z,21.27
2016-06-23T00:18:34.139Z,21.33
2016-06-23T00:19:34.145Z,21.45
2016-06-23T00:20:34.120Z,21.45
2016-06-23T00:21:34.100Z,21.62
2016-06-23T00:22:34.093Z,21.52
2016-06-23T00:23:34.070Z,21.4
2016-06-23T00:24:34.058Z,21.36
2016-06-23T00:25:34.047Z,21.33
2016-06-23T00:26:34.033Z,21.27
2016-06-23T00:27:34.012Z,21.21
2016-06-23T00:28:33.366Z,21.29
2016-06-23T00:29:32.708Z,21.35
2016-06-23T00:30:33.969Z,21.21
2016-06-23T00:31:33.327Z,21.3
2016-06-23T00:32:33.954Z,21.52
2016-06-23T00:33:33.290Z,21.35
2016-06-23T00:34:33.914Z,21.33
2016-06-23T00:35:33.903Z,21.36
2016-06-23T00:36:33.878Z,21.24
2016-06-23T00:37:33.877Z,21.21
2016-06-23T00:38:33.229Z,21.18
2016-06-23T00:39:33.196Z,21.17
2016-06-23T00:40:32.552Z,21.12
2016-06-23T00:41:33.175Z,21.14
2016-06-23T00:42:33.805Z,21.15
2016-06-23T00:43:32.508Z,21.12
2016-06-23T00:44:33.782Z,21.17
2016-06-23T00:45:33.764Z,21.22
2016-06-23T00:46:33.752Z,21.2
2016-06-23T00:47:32.454Z,21.27
2016-06-23T00:48:33.711Z,21.27
2016-06-23T00:49:33.077Z,21.29
2016-06-23T00:50:33.695Z,21.2
2016-06-23T00:51:33.044Z,21.17
2016-06-23T00:52:33.019Z,21.2
2016-06-23T00:53:33.004Z,21.2
2016-06-23T00:54:33.627Z,21.22
2016-06-23T00:55:33.614Z,21.4
2016-06-23T00:56:33.606Z,21.37
2016-06-23T00:57:33.589Z,21.2
2016-06-23T00:58:32.287Z,21.27
2016-06-23T00:59:33.591Z,21.24
2016-06-23T01:00:33.548Z,21.2
2016-06-23T01:01:33.539Z,21.2
2016-06-23T01:02:33.550Z,21.32
2016-06-23T01:03:33.505Z,21.39
2016-06-23T01:04:32.844Z,21.37
2016-06-23T01:05:32.187Z,21.35
2016-06-23T01:06:32.831Z,21.39
2016-06-23T01:07:32.336Z,21.36
2016-06-23T01:08:33.488Z,21.22
2016-06-23T01:09:33.425Z,21.29
2016-06-23T01:10:33.415Z,21.33
2016-06-23T01:11:32.339Z,21.35
2016-06-23T01:12:32.722Z,21.32
2016-06-23T01:13:33.434Z,21.22
2016-06-23T01:14:32.695Z,21.25
2016-06-23T01:15:33.337Z,21.35
2016-06-23T01:16:33.326Z,21.2
2016-06-23T01:17:33.307Z,21.36
2016-06-23T01:18:33.285Z,21.42
2016-06-23T01:19:33.266Z,21.24
2016-06-23T01:20:32.621Z,21.2
2016-06-23T01:21:33.238Z,21.02
2016-06-23T01:22:33.231Z,21.15
2016-06-23T01:23:32.574Z,21.12
2016-06-23T01:24:33.202Z,21.11
2016-06-23T01:25:33.183Z,21.18
2016-06-23T01:26:32.536Z,21.29
2016-06-23T01:27:33.154Z,21.24
2016-06-23T01:28:33.135Z,21.25
2016-06-23T01:29:32.494Z,21.24
2016-06-23T01:30:32.482Z,21.07
2016-06-23T01:31:33.100Z,21.22
2016-06-23T01:32:33.089Z,21.24
2016-06-23T01:33:32.429Z,21.32
2016-06-23T01:34:33.058Z,21.22
2016-06-23T01:35:33.050Z,21.32
2016-06-23T01:36:33.032Z,21.32
2016-06-23T01:37:33.019Z,21.33
2016-06-23T01:38:32.363Z,21.12
2016-06-23T01:39:32.339Z,21.15
2016-06-23T01:40:32.326Z,21.18
2016-06-23T01:41:32.318Z,21.2
2016-06-23T01:42:32.969Z,21.25
2016-06-23T01:43:32.950Z,21.05
2016-06-23T01:44:32.272Z,21.12
2016-06-23T01:45:31.613Z,21.05
2016-06-23T01:46:32.907Z,21.06
2016-06-23T01:47:32.881Z,21.14
2016-06-23T01:48:32.857Z,20.95
2016-06-23T01:49:32.212Z,21
2016-06-23T01:50:32.839Z,21.05
2016-06-23T01:51:32.806Z,21.03
2016-06-23T01:52:32.789Z,21.09
2016-06-23T01:53:32.783Z,21
2016-06-23T01:54:32.758Z,20.96
2016-06-23T01:55:32.753Z,20.99
2016-06-23T01:56:32.741Z,20.93
2016-06-23T01:57:32.719Z,20.82
2016-06-23T01:58:32.065Z,20.93
2016-06-23T01:59:32.694Z,20.85
2016-06-23T02:00:32.035Z,20.81
2016-06-23T02:01:32.023Z,20.84
2016-06-23T02:02:31.376Z,20.93
2016-06-23T02:03:32.646Z,21
2016-06-23T02:04:32.638Z,20.87
2016-06-23T02:05:32.609Z,20.93
2016-06-23T02:06:32.599Z,20.96
2016-06-23T02:07:31.939Z,20.85
2016-06-23T02:08:31.934Z,20.8
2016-06-23T02:09:32.549Z,20.8
2016-06-23T02:10:32.545Z,20.81
2016-06-23T02:11:32.531Z,20.87
2016-06-23T02:12:32.507Z,20.81
2016-06-23T02:13:31.855Z,20.88
2016-06-23T02:14:31.843Z,20.92
2016-06-23T02:15:31.843Z,20.97
2016-06-23T02:16:32.458Z,20.92
2016-06-23T02:17:32.435Z,20.7
2016-06-23T02:18:31.148Z,20.9
2016-06-23T02:19:32.413Z,20.77
2016-06-23T02:20:31.791Z,20.75
2016-06-23T02:21:32.407Z,20.87
2016-06-23T02:22:31.742Z,20.9
2016-06-23T02:23:31.718Z,20.84
2016-06-23T02:24:31.689Z,20.85
2016-06-23T02:25:32.318Z,20.99
2016-06-23T02:26:32.304Z,20.9
2016-06-23T02:27:32.294Z,20.87
2016-06-23T02:28:32.278Z,20.84
2016-06-23T02:29:31.653Z,20.75
2016-06-23T02:30:31.611Z,20.69
2016-06-23T02:31:32.236Z,20.78
2016-06-23T02:32:32.218Z,20.93
2016-06-23T02:33:31.563Z,20.95
2016-06-23T02:34:32.180Z,20.69
2016-06-23T02:35:31.554Z,20.82
2016-06-23T02:36:31.546Z,20.85
2016-06-23T02:37:31.516Z,20.75
2016-06-23T02:38:31.483Z,20.55
2016-06-23T02:39:32.117Z,20.56
2016-06-23T02:40:31.469Z,20.67
2016-06-23T02:41:31.449Z,20.59
2016-06-23T02:42:31.424Z,20.66
2016-06-23T02:43:32.058Z,20.67
2016-06-23T02:44:32.044Z,20.78
2016-06-23T02:45:31.382Z,20.8
2016-06-23T02:46:31.379Z,20.59
2016-06-23T02:47:31.993Z,20.67
2016-06-23T02:48:31.975Z,20.84
2016-06-23T02:49:31.964Z,20.75
2016-06-23T02:50:31.358Z,20.85
2016-06-23T02:51:31.948Z,20.85
2016-06-23T02:52:31.295Z,20.8
2016-06-23T02:53:31.273Z,20.84
2016-06-23T02:54:31.266Z,20.87
2016-06-23T02:55:31.892Z,20.77
2016-06-23T02:56:31.906Z,20.93
2016-06-23T02:57:30.566Z,20.82
2016-06-23T02:58:31.839Z,20.7
2016-06-23T02:59:30.558Z,20.78
2016-06-23T03:00:31.162Z,20.85
2016-06-23T03:01:31.797Z,20.67
2016-06-23T03:02:31.784Z,20.75
2016-06-23T03:03:31.113Z,20.85
2016-06-23T03:04:31.760Z,20.85
2016-06-23T03:05:31.736Z,20.78
2016-06-23T03:06:31.086Z,20.75
2016-06-23T03:07:31.705Z,20.8
2016-06-23T03:08:31.059Z,20.72
2016-06-23T03:09:31.026Z,20.85
2016-06-23T03:10:31.022Z,20.9
2016-06-23T03:11:31.652Z,21.11
2016-06-23T03:12:30.993Z,20.9
2016-06-23T03:13:30.987Z,20.65
2016-06-23T03:14:31.609Z,20.55
2016-06-23T03:15:30.951Z,20.74
2016-06-23T03:16:31.579Z,20.88
2016-06-23T03:17:30.914Z,20.82
2016-06-23T03:18:31.551Z,20.43
2016-06-23T03:19:30.255Z,20.58
2016-06-23T03:20:30.883Z,20.74
2016-06-23T03:21:31.508Z,20.78
2016-06-23T03:22:31.499Z,20.81
2016-06-23T03:23:31.475Z,20.67
2016-06-23T03:24:30.830Z,20.65
2016-06-23T03:25:30.807Z,20.5
2016-06-23T03:26:31.435Z,20.59
2016-06-23T03:27:30.794Z,20.58
2016-06-23T03:28:30.751Z,20.59
2016-06-23T03:29:31.395Z,20.56
2016-06-23T03:30:31.365Z,20.65
2016-06-23T03:31:30.735Z,20.65
2016-06-23T03:32:30.735Z,20.67
2016-06-23T03:33:31.317Z,20.67
2016-06-23T03:34:30.681Z,20.56
2016-06-23T03:35:31.309Z,20.52
2016-06-23T03:36:31.282Z,20.6
2016-06-23T03:37:31.276Z,20.5
2016-06-23T03:38:31.262Z,20.55
2016-06-23T03:39:31.226Z,20.74
2016-06-23T03:40:29.953Z,20.67
2016-06-23T03:41:31.218Z,20.66
2016-06-23T03:42:30.550Z,20.7
2016-06-23T03:43:30.539Z,20.66
2016-06-23T03:44:31.177Z,20.7
2016-06-23T03:45:30.522Z,20.69
2016-06-23T03:46:30.498Z,20.74
2016-06-23T03:47:30.488Z,20.48
2016-06-23T03:48:30.470Z,20.51
2016-06-23T03:49:31.111Z,20.56
2016-06-23T03:50:29.819Z,20.69
2016-06-23T03:51:31.069Z,20.62
2016-06-23T03:52:31.047Z,20.44
2016-06-23T03:53:31.027Z,20.72
2016-06-23T03:54:31.024Z,20.72
2016-06-23T03:55:29.723Z,20.84
2016-06-23T03:56:30.995Z,20.8
2016-06-23T03:57:30.982Z,20.8
2016-06-23T03:58:30.967Z,20.8
2016-06-23T03:59:30.936Z,20.67
2016-06-23T04:00:30.931Z,20.88
2016-06-23T04:01:30.922Z,20.92
2016-06-23T04:02:30.918Z,20.78
2016-06-23T04:03:30.925Z,20.8
2016-06-23T04:04:30.880Z,20.8
2016-06-23T04:05:30.853Z,20.66
2016-06-23T04:06:30.838Z,20.66
2016-06-23T04:07:30.201Z,20.51
2016-06-23T04:08:30.180Z,20.51
2016-06-23T04:09:30.785Z,20.47
2016-06-23T04:10:30.781Z,20.6
2016-06-23T04:11:30.128Z,20.67
2016-06-23T04:12:30.760Z,20.77
2016-06-23T04:13:30.103Z,20.81
2016-06-23T04:14:30.721Z,20.8
2016-06-23T04:15:30.068Z,20.7
2016-06-23T04:16:30.049Z,20.6
2016-06-23T04:17:30.676Z,20.41
2016-06-23T04:18:30.033Z,20.44
2016-06-23T04:19:30.643Z,20.51
2016-06-23T04:20:30.622Z,20.52
2016-06-23T04:21:30.648Z,20.48
2016-06-23T04:22:30.610Z,20.48
2016-06-23T04:23:29.955Z,20.67
2016-06-23T04:24:30.579Z,20.75
2016-06-23T04:25:29.911Z,20.52
2016-06-23T04:26:30.537Z,20.5
2016-06-23T04:27:30.532Z,20.59
2016-06-23T04:28:29.236Z,20.58
2016-06-23T04:29:29.862Z,20.66
2016-06-23T04:30:30.495Z,20.5
2016-06-23T04:31:30.483Z,20.6
2016-06-23T04:32:30.466Z,20.63
2016-06-23T04:33:29.817Z,20.65
2016-06-23T04:34:30.423Z,20.6
2016-06-23T04:35:30.448Z,20.39
2016-06-23T04:36:29.764Z,20.47
2016-06-23T04:37:30.385Z,20.4
2016-06-23T04:38:29.739Z,20.41
2016-06-23T04:39:30.366Z,20.55
2016-06-23T04:40:30.347Z,20.48
2016-06-23T04:41:30.321Z,20.37
2016-06-23T04:42:29.666Z,20.48
2016-06-23T04:43:29.659Z,20.39
2016-06-23T04:44:30.290Z,20.44
2016-06-23T04:45:29.627Z,20.41
2016-06-23T04:46:30.265Z,20.48
2016-06-23T04:47:28.972Z,20.26
2016-06-23T04:48:30.231Z,20.34
2016-06-23T04:49:29.564Z,20.47
2016-06-23T04:50:30.205Z,20.4
2016-06-23T04:51:30.173Z,20.41
2016-06-23T04:52:28.891Z,20.59
2016-06-23T04:53:30.149Z,20.51
2016-06-23T04:54:30.131Z,20.59
2016-06-23T04:55:29.505Z,20.51
2016-06-23T04:56:29.464Z,20.44
2016-06-23T04:57:29.458Z,20.43
2016-06-23T04:58:30.089Z,20.29
2016-06-23T04:59:29.414Z,20.32
2016-06-23T05:00:30.055Z,20.39
2016-06-23T05:01:29.389Z,20.41
2016-06-23T05:02:29.372Z,20.44
2016-06-23T05:03:29.366Z,20.41
2016-06-23T05:04:29.981Z,20.43
2016-06-23T05:05:29.349Z,20.47
2016-06-23T05:06:29.320Z,20.72
2016-06-23T05:07:29.937Z,20.63
2016-06-23T05:08:29.926Z,20.51
2016-06-23T05:09:29.277Z,20.41
2016-06-23T05:10:29.256Z,20.5
2016-06-23T05:11:29.243Z,20.43
2016-06-23T05:12:29.225Z,20.37
2016-06-23T05:13:29.858Z,20.6
2016-06-23T05:14:29.837Z,20.59
2016-06-23T05:15:29.841Z,20.41
2016-06-23T05:16:29.181Z,20.47
2016-06-23T05:17:29.800Z,20.56
2016-06-23T05:18:29.146Z,20.55
2016-06-23T05:19:29.768Z,20.55
2016-06-23T05:20:28.490Z,20.36
2016-06-23T05:21:29.733Z,20.39
2016-06-23T05:22:29.750Z,20.41
2016-06-23T05:23:29.709Z,20.31
2016-06-23T05:24:29.708Z,20.36
2016-06-23T05:25:29.675Z,20.41
2016-06-23T05:26:29.674Z,20.55
2016-06-23T05:27:29.043Z,20.55
2016-06-23T05:28:29.651Z,20.43
2016-06-23T05:29:28.988Z,20.44
2016-06-23T05:30:29.606Z,20.39
2016-06-23T05:31:29.595Z,20.39
2016-06-23T05:32:28.937Z,20.39
2016-06-23T05:33:29.594Z,20.39
2016-06-23T05:34:28.912Z,20.37
2016-06-23T05:35:28.899Z,20.32
2016-06-23T05:36:29.518Z,20.37
2016-06-23T05:37:28.894Z,20.47
2016-06-23T05:38:29.516Z,20.52
2016-06-23T05:39:29.480Z,20.56
2016-06-23T05:40:29.490Z,20.48
2016-06-23T05:41:29.446Z,20.47
2016-06-23T05:42:28.791Z,20.44
2016-06-23T05:43:29.415Z,20.56
2016-06-23T05:44:29.387Z,20.55
2016-06-23T05:45:29.402Z,20.6
2016-06-23T05:46:28.739Z,20.44
2016-06-23T05:47:29.359Z,20.56
2016-06-23T05:48:28.726Z,20.59
2016-06-23T05:49:28.677Z,20.58
2016-06-23T05:50:29.316Z,20.55
2016-06-23T05:51:29.309Z,20.56
2016-06-23T05:52:29.289Z,20.58
2016-06-23T05:53:28.638Z,20.62
2016-06-23T05:54:28.623Z,20.37
2016-06-23T05:55:28.605Z,20.59
2016-06-23T05:56:29.231Z,20.78
2016-06-23T05:57:29.212Z,20.78
2016-06-23T05:58:29.206Z,20.72
2016-06-23T05:59:27.910Z,20.74
2016-06-23T06:00:29.169Z,20.78
2016-06-23T06:01:29.170Z,20.78
2016-06-23T06:02:28.501Z,20.69
2016-06-23T06:03:29.342Z,20.7
2016-06-23T06:04:28.485Z,20.55
2016-06-23T06:05:28.470Z,20.74
2016-06-23T06:06:29.081Z,20.69
2016-06-23T06:07:29.070Z,20.66
2016-06-23T06:08:29.063Z,20.8
2016-06-23T06:09:29.039Z,20.84
2016-06-23T06:10:29.042Z,20.67
2016-06-23T06:11:28.372Z,20.87
2016-06-23T06:12:28.338Z,20.97
2016-06-23T06:13:28.349Z,20.72
2016-06-23T06:14:28.333Z,20.52
2016-06-23T06:15:27.669Z,20.74
2016-06-23T06:16:28.933Z,20.67
2016-06-23T06:17:28.918Z,20.78
2016-06-23T06:18:28.907Z,20.93
2016-06-23T06:19:28.245Z,20.75
2016-06-23T06:20:28.873Z,20.87
2016-06-23T06:21:27.593Z,20.85
2016-06-23T06:22:28.846Z,20.78
2016-06-23T06:23:28.830Z,20.96
2016-06-23T06:24:28.818Z,20.95
2016-06-23T06:25:28.169Z,20.97
2016-06-23T06:26:28.785Z,21
2016-06-23T06:27:28.774Z,20.96
2016-06-23T06:28:28.746Z,21.05
2016-06-23T06:29:28.745Z,20.99
2016-06-23T06:30:28.750Z,21
2016-06-23T06:31:27.440Z,21.06
2016-06-23T06:32:28.714Z,21.14
2016-06-23T06:33:28.689Z,21.18
2016-06-23T06:34:28.037Z,21.18
2016-06-23T06:35:28.017Z,21.21
2016-06-23T06:36:28.637Z,21
2016-06-23T06:37:28.012Z,21.15
2016-06-23T06:38:27.980Z,21.17
2016-06-23T06:39:27.946Z,21.17
2016-06-23T06:40:28.577Z,21.2
2016-06-23T06:41:28.559Z,21.07
2016-06-23T06:42:28.551Z,21.17
2016-06-23T06:43:28.542Z,21.17
2016-06-23T06:44:28.518Z,21.14
2016-06-23T06:45:28.518Z,21.17
2016-06-23T06:46:28.492Z,21.14
2016-06-23T06:47:28.490Z,21.22
2016-06-23T06:48:28.478Z,21.18
2016-06-23T06:49:27.820Z,21.17
2016-06-23T06:50:27.808Z,21.21
2016-06-23T06:51:28.425Z,21.12
2016-06-23T06:52:28.417Z,21.22
2016-06-23T06:53:28.396Z,21.29
2016-06-23T06:54:27.750Z,21.27
2016-06-23T06:55:27.738Z,21.42
2016-06-23T06:56:28.347Z,21.27
2016-06-23T06:57:28.335Z,21.42
2016-06-23T06:58:27.689Z,21.42
2016-06-23T06:59:27.664Z,21.36
2016-06-23T07:00:27.656Z,21.35
2016-06-23T07:01:28.287Z,21.45
2016-06-23T07:02:27.625Z,21.51
2016-06-23T07:03:27.622Z,21.55
2016-06-23T07:04:27.591Z,21.55
2016-06-23T07:05:28.223Z,21.69
2016-06-23T07:06:27.578Z,21.7
2016-06-23T07:07:27.555Z,21.93
2016-06-23T07:08:28.175Z,21.76
2016-06-23T07:09:28.171Z,21.62
2016-06-23T07:10:27.512Z,21.77
2016-06-23T07:11:27.500Z,21.93
2016-06-23T07:12:26.843Z,21.77
2016-06-23T07:13:28.104Z,21.66
2016-06-23T07:14:27.453Z,21.75
2016-06-23T07:15:28.133Z,21.75
2016-06-23T07:16:28.075Z,21.83
2016-06-23T07:17:28.083Z,21.93
2016-06-23T07:18:28.044Z,21.96
2016-06-23T07:19:27.384Z,21.99
2016-06-23T07:20:28.015Z,22
2016-06-23T07:21:27.996Z,22.04
2016-06-23T07:22:27.991Z,22.08
2016-06-23T07:23:27.977Z,22.15
2016-06-23T07:24:27.973Z,22.26
2016-06-23T07:25:27.956Z,22.36
2016-06-23T07:26:27.929Z,22.29
2016-06-23T07:27:27.917Z,22.41
2016-06-23T07:28:27.902Z,22.25
2016-06-23T07:29:27.270Z,22.41
2016-06-23T07:30:27.919Z,22.5
2016-06-23T07:31:27.220Z,22.48
2016-06-23T07:32:27.848Z,22.59
2016-06-23T07:33:27.188Z,22.48
2016-06-23T07:34:27.812Z,22.47
2016-06-23T07:35:27.182Z,22.63
2016-06-23T07:36:27.829Z,22.65
2016-06-23T07:37:27.139Z,22.6
2016-06-23T07:38:27.118Z,22.54
2016-06-23T07:39:27.766Z,22.57
2016-06-23T07:40:27.113Z,22.66
2016-06-23T07:41:27.089Z,22.62
2016-06-23T07:42:27.727Z,22.62
2016-06-23T07:43:27.680Z,22.65
2016-06-23T07:44:27.682Z,22.68
2016-06-23T07:45:27.679Z,22.78
2016-06-23T07:46:27.671Z,22.66
2016-06-23T07:47:27.655Z,22.7
2016-06-23T07:48:27.630Z,22.59
2016-06-23T07:49:27.602Z,22.51
2016-06-23T07:50:26.993Z,22.66
2016-06-23T07:51:26.951Z,22.72
2016-06-23T07:52:26.980Z,22.66
2016-06-23T07:53:27.557Z,22.65
2016-06-23T07:54:26.278Z,22.45
2016-06-23T07:55:27.534Z,22.57
2016-06-23T07:56:26.894Z,22.5
2016-06-23T07:57:26.907Z,22.66
2016-06-23T07:58:27.535Z,22.63
2016-06-23T07:59:27.492Z,22.54
2016-06-23T08:00:26.832Z,22.75
2016-06-23T08:01:27.463Z,22.69
2016-06-23T08:02:27.456Z,22.65
2016-06-23T08:03:27.477Z,22.47
2016-06-23T08:04:26.755Z,22.66
2016-06-23T08:05:26.763Z,22.76
2016-06-23T08:06:26.745Z,22.68
2016-06-23T08:07:27.381Z,22.59
2016-06-23T08:08:27.358Z,22.62
2016-06-23T08:09:27.579Z,22.66
2016-06-23T08:10:26.709Z,22.73
2016-06-23T08:11:26.680Z,22.73
2016-06-23T08:12:27.328Z,22.96
2016-06-23T08:13:27.295Z,22.94
2016-06-23T08:14:27.287Z,22.93
2016-06-23T08:15:27.263Z,22.96
2016-06-23T08:16:26.610Z,22.91
2016-06-23T08:17:27.227Z,22.94
2016-06-23T08:18:27.221Z,22.78
2016-06-23T08:19:26.579Z,22.75
2016-06-23T08:20:27.256Z,22.72
2016-06-23T08:21:27.187Z,22.99
2016-06-23T08:22:27.182Z,22.96
2016-06-23T08:23:26.520Z,23.08
2016-06-23T08:24:27.147Z,23.08
2016-06-23T08:25:26.497Z,23.15
2016-06-23T08:26:25.834Z,23.08
2016-06-23T08:27:26.484Z,23.06
2016-06-23T08:28:26.472Z,22.87
2016-06-23T08:29:26.432Z,22.94
2016-06-23T08:30:27.065Z,23.05
2016-06-23T08:31:27.067Z,23.25
2016-06-23T08:32:26.394Z,23.37
2016-06-23T08:33:27.027Z,23.27
2016-06-23T08:34:26.377Z,23.44
2016-06-23T08:35:27.247Z,23.32
2016-06-23T08:36:26.354Z,23.32
2016-06-23T08:37:26.978Z,23.18
2016-06-23T08:38:26.950Z,23.25
2016-06-23T08:39:26.946Z,23.28
2016-06-23T08:40:26.942Z,23.27
2016-06-23T08:41:26.274Z,23.31
2016-06-23T08:42:26.261Z,23.58
2016-06-23T08:43:26.895Z,23.59
2016-06-23T08:44:26.877Z,23.59
2016-06-23T08:45:26.227Z,23.43
2016-06-23T08:46:26.214Z,23.39
2016-06-23T08:47:26.851Z,23.46
2016-06-23T08:48:26.874Z,23.65
2016-06-23T08:49:26.167Z,23.71
2016-06-23T08:50:26.810Z,23.73
2016-06-23T08:51:26.798Z,23.86
2016-06-23T08:52:26.151Z,23.83
2016-06-23T08:53:26.769Z,23.65
2016-06-23T08:54:26.124Z,23.5
2016-06-23T08:55:26.112Z,23.83
2016-06-23T08:56:26.098Z,23.77
2016-06-23T08:57:26.731Z,23.81
2016-06-23T08:58:26.711Z,23.8
2016-06-23T08:59:26.702Z,23.95
2016-06-23T09:00:25.400Z,23.98
2016-06-23T09:01:25.387Z,23.91
2016-06-23T09:02:26.653Z,23.88
2016-06-23T09:03:26.657Z,23.8
2016-06-23T09:04:26.016Z,23.86
2016-06-23T09:05:26.618Z,23.76
2016-06-23T09:06:26.605Z,23.77
2016-06-23T09:07:26.589Z,23.8
2016-06-23T09:08:26.582Z,23.68
2016-06-23T09:09:26.573Z,23.62
2016-06-23T09:10:26.565Z,23.74
2016-06-23T09:11:25.914Z,23.84
2016-06-23T09:12:25.895Z,24.01
2016-06-23T09:13:25.878Z,24.1
2016-06-23T09:14:26.524Z,24.11
2016-06-23T09:15:26.505Z,24.1
2016-06-23T09:16:26.491Z,24.08
2016-06-23T09:17:26.464Z,24.14
2016-06-23T09:18:25.178Z,24.24
2016-06-23T09:19:25.811Z,24.2
2016-06-23T09:20:25.798Z,24.36
2016-06-23T09:21:25.786Z,24.11
2016-06-23T09:22:25.772Z,24.26
2016-06-23T09:23:26.398Z,23.84
2016-06-23T09:24:26.389Z,23.99
2016-06-23T09:25:25.754Z,24.01
2016-06-23T09:26:26.373Z,24.06
2016-06-23T09:27:25.734Z,24.18
2016-06-23T09:28:25.697Z,24.21
2016-06-23T09:29:26.349Z,24.21
2016-06-23T09:30:25.042Z,24.2
2016-06-23T09:31:26.314Z,24.3
2016-06-23T09:32:26.287Z,24.61
2016-06-23T09:33:26.288Z,24.74
2016-06-23T09:34:26.266Z,24.36
2016-06-23T09:35:25.619Z,24.26
2016-06-23T09:36:25.606Z,24.2
2016-06-23T09:37:26.258Z,24.5
2016-06-23T09:38:26.240Z,24.61
2016-06-23T09:39:25.563Z,24.54
2016-06-23T09:40:25.556Z,24.61
2016-06-23T09:41:26.188Z,24.45
2016-06-23T09:42:25.538Z,24.66
2016-06-23T09:43:26.194Z,24.65
2016-06-23T09:44:26.170Z,24.57
2016-06-23T09:45:26.137Z,24.7
2016-06-23T09:46:26.130Z,24.91
2016-06-23T09:47:25.478Z,24.91
2016-06-23T09:48:25.479Z,24.73
2016-06-23T09:49:26.081Z,24.86
2016-06-23T09:50:26.085Z,24.77
2016-06-23T09:51:26.064Z,24.69
2016-06-23T09:52:26.041Z,24.74
2016-06-23T09:53:26.054Z,24.85
2016-06-23T09:54:26.025Z,24.95
2016-06-23T09:55:25.426Z,24.99
2016-06-23T09:56:25.364Z,24.8
2016-06-23T09:57:24.717Z,24.68
2016-06-23T09:58:25.343Z,24.95
2016-06-23T09:59:25.373Z,25.1
2016-06-23T10:00:24.689Z,25.06
2016-06-23T10:01:25.951Z,25.14
2016-06-23T10:02:25.292Z,24.99
2016-06-23T10:03:25.937Z,25.14
2016-06-23T10:04:25.269Z,25.14
2016-06-23T10:05:25.258Z,24.89
2016-06-23T10:06:25.896Z,24.99
2016-06-23T10:07:25.873Z,25.11
2016-06-23T10:08:25.856Z,25.06
2016-06-23T10:09:25.253Z,25.06
2016-06-23T10:10:25.269Z,24.74
2016-06-23T10:11:25.831Z,24.85
2016-06-23T10:12:25.192Z,24.81
2016-06-23T10:13:25.815Z,24.76
2016-06-23T10:14:25.803Z,24.63
2016-06-23T10:15:25.146Z,24.32
2016-06-23T10:16:25.792Z,24.51
2016-06-23T10:17:25.761Z,24.61
2016-06-23T10:18:26.061Z,24.84
2016-06-23T10:19:25.778Z,25.04
2016-06-23T10:20:25.745Z,25.18
2016-06-23T10:21:25.083Z,24.93
2016-06-23T10:22:25.697Z,24.96
2016-06-23T10:23:25.070Z,25.22
2016-06-23T10:24:25.682Z,25.04
2016-06-23T10:25:25.678Z,25.07
2016-06-23T10:26:25.665Z,25.06
2016-06-23T10:27:25.643Z,24.88
2016-06-23T10:28:25.626Z,24.89
2016-06-23T10:29:25.666Z,24.78
2016-06-23T10:30:25.622Z,24.92
2016-06-23T10:31:24.958Z,25.22
2016-06-23T10:32:25.600Z,25.25
2016-06-23T10:33:24.940Z,25.23
2016-06-23T10:34:25.604Z,25.17
2016-06-23T10:35:25.577Z,25.08
2016-06-23T10:36:25.539Z,25.26
2016-06-23T10:37:25.551Z,25.48
2016-06-23T10:38:24.890Z,25.66
2016-06-23T10:39:25.525Z,25.41
2016-06-23T10:40:25.507Z,25.51
2016-06-23T10:41:25.537Z,25.63
2016-06-23T10:42:24.855Z,25.41
2016-06-23T10:43:24.844Z,25.55
2016-06-23T10:44:24.818Z,25.65
2016-06-23T10:45:25.453Z,25.83
2016-06-23T10:46:25.846Z,25.85
2016-06-23T10:47:24.143Z,25.81
2016-06-23T10:48:25.773Z,26.16
2016-06-23T10:49:24.805Z,26.16
2016-06-23T10:50:25.388Z,26
2016-06-23T10:51:24.746Z,25.9
2016-06-23T10:52:25.389Z,25.8
2016-06-23T10:53:24.795Z,25.48
2016-06-23T10:54:25.350Z,25.6
2016-06-23T10:55:25.348Z,25.93
2016-06-23T10:56:24.854Z,26.07
2016-06-23T10:57:25.115Z,26.25
2016-06-23T10:58:25.550Z,26.43
2016-06-23T10:59:25.781Z,26.44
2016-06-23T11:00:25.405Z,26.38
2016-06-23T11:01:24.764Z,26.29
2016-06-23T11:02:25.276Z,26.21
2016-06-23T11:03:25.238Z,26.13
2016-06-23T11:04:25.378Z,26.09
2016-06-23T11:05:24.585Z,25.47
2016-06-23T11:06:25.212Z,25.46
2016-06-23T11:07:25.253Z,25.77
2016-06-23T11:08:25.232Z,25.99
2016-06-23T11:09:25.223Z,25.99
2016-06-23T11:10:25.099Z,25.99
2016-06-23T11:11:24.526Z,25.9
2016-06-23T11:12:25.185Z,26.07
2016-06-23T11:13:25.182Z,26.48
2016-06-23T11:14:25.201Z,26.58
2016-06-23T11:15:25.475Z,26.7
2016-06-23T11:16:25.107Z,26.62
2016-06-23T11:17:24.458Z,26.7
2016-06-23T11:18:25.281Z,26.78
2016-06-23T11:19:24.895Z,26.6
2016-06-23T11:20:25.046Z,26.59
2016-06-23T11:21:24.505Z,26.9
2016-06-23T11:22:24.380Z,27.18
2016-06-23T11:23:25.010Z,27.32
2016-06-23T11:24:24.374Z,27.08
2016-06-23T11:25:25.011Z,27.08
2016-06-23T11:26:24.980Z,27.05
2016-06-23T11:27:25.010Z,27.27
2016-06-23T11:28:23.681Z,27.44
2016-06-23T11:29:24.988Z,27.58
2016-06-23T11:30:24.580Z,27.51
2016-06-23T11:31:24.962Z,27.39
2016-06-23T11:32:24.330Z,27.58
2016-06-23T11:33:24.918Z,27.55
2016-06-23T11:34:24.927Z,27.8
2016-06-23T11:35:24.980Z,27.32
2016-06-23T11:36:24.881Z,27.27
2016-06-23T11:37:24.899Z,27.33
2016-06-23T11:38:24.419Z,27.12
2016-06-23T11:39:24.863Z,27.35
2016-06-23T11:40:23.581Z,27.27
2016-06-23T11:41:25.089Z,27.59
2016-06-23T11:42:23.570Z,27.98
2016-06-23T11:43:24.198Z,27.89
2016-06-23T11:44:24.827Z,27.78
2016-06-23T11:45:23.545Z,27.8
2016-06-23T11:46:24.879Z,27.7
2016-06-23T11:47:24.964Z,27.96
2016-06-23T11:48:24.243Z,27.96
2016-06-23T11:49:24.140Z,28.23
2016-06-23T11:50:24.772Z,28.01
2016-06-23T11:51:24.772Z,28.74
2016-06-23T11:52:24.805Z,28.82
2016-06-23T11:53:24.131Z,28.93
2016-06-23T11:54:24.751Z,28.63
2016-06-23T11:55:24.114Z,29.16
2016-06-23T11:56:24.104Z,28.82
2016-06-23T11:57:24.741Z,28.74
2016-06-23T11:58:24.749Z,28.6
2016-06-23T11:59:24.100Z,29.19
2016-06-23T12:00:24.730Z,29.47
2016-06-23T12:01:24.074Z,29.16
2016-06-23T12:02:24.721Z,29.38
2016-06-23T12:03:24.090Z,30.02
2016-06-23T12:04:24.076Z,30.23
2016-06-23T12:05:24.741Z,30.35
2016-06-23T12:06:23.584Z,30.1
2016-06-23T12:07:24.927Z,30.48
2016-06-23T12:08:24.063Z,30.5
2016-06-23T12:09:24.050Z,30.72
2016-06-23T12:10:24.059Z,31.25
2016-06-23T12:11:24.707Z,31.89
2016-06-23T12:12:24.681Z,32.14
2016-06-23T12:13:24.686Z,32.41
2016-06-23T12:14:24.694Z,32.15
2016-06-23T12:15:23.394Z,31.89
2016-06-23T12:16:24.664Z,31.42
2016-06-23T12:17:24.031Z,31.47
2016-06-23T12:18:24.715Z,31.77
2016-06-23T12:19:23.399Z,32.31
2016-06-23T12:20:24.667Z,32.43
2016-06-23T12:21:24.659Z,32.43
2016-06-23T12:22:24.024Z,32.46
2016-06-23T12:23:24.666Z,32.97
2016-06-23T12:24:24.671Z,32.49
2016-06-23T12:25:24.707Z,32.49
2016-06-23T12:26:24.039Z,32.04
2016-06-23T12:27:24.651Z,32.41
2016-06-23T12:28:24.672Z,32.74
2016-06-23T12:29:24.020Z,32.75
2016-06-23T12:30:24.021Z,31.14
2016-06-23T12:31:24.014Z,30.78
2016-06-23T12:32:24.023Z,30.92
2016-06-23T12:33:24.011Z,30.73
2016-06-23T12:34:24.658Z,29.81
2016-06-23T12:35:24.017Z,30.27
2016-06-23T12:36:24.662Z,31.17
2016-06-23T12:37:24.054Z,30.81
2016-06-23T12:38:23.368Z,30.91
2016-06-23T12:39:24.660Z,31.29
2016-06-23T12:40:24.642Z,31.94
2016-06-23T12:41:24.030Z,32.7
2016-06-23T12:42:24.658Z,32.51
2016-06-23T12:43:24.646Z,32.6
2016-06-23T12:44:24.647Z,32.75
2016-06-23T12:45:24.662Z,32.59
2016-06-23T12:46:24.015Z,32.83
2016-06-23T12:47:24.642Z,32.6
2016-06-23T12:48:24.048Z,32.6
2016-06-23T12:49:24.641Z,32.77
2016-06-23T12:50:23.996Z,33.23
2016-06-23T12:51:24.649Z,33.19
2016-06-23T12:52:23.999Z,32.45
2016-06-23T12:53:24.005Z,32.55
2016-06-23T12:54:24.646Z,32.16
2016-06-23T12:55:24.627Z,32.63
2016-06-23T12:56:24.650Z,32.53